createdAt,value
2019-03-16T00:00:15.991Z,9.78
2019-03-16T00:02:43.039Z,9.76
2019-03-16T00:05:10.121Z,9.74
2019-03-16T00:07:37.179Z,9.73
2019-03-16T00:10:04.270Z,9.76
2019-03-16T00:12:31.337Z,9.68
2019-03-16T00:14:58.387Z,9.66
2019-03-16T00:17:25.480Z,9.59
2019-03-16T00:19:52.558Z,9.59
2019-03-16T00:22:19.652Z,9.53
2019-03-16T00:24:46.841Z,9.51
2019-03-16T00:27:13.970Z,9.47
2019-03-16T00:29:41.011Z,9.46
2019-03-16T00:32:13.332Z,9.41
2019-03-16T00:34:37.028Z,9.36
2019-03-16T00:37:04.081Z,9.33
2019-03-16T00:39:31.127Z,9.29
2019-03-16T00:41:58.211Z,9.29
2019-03-16T00:44:25.348Z,9.35
2019-03-16T00:46:52.423Z,9.32
2019-03-16T00:49:19.519Z,9.33
2019-03-16T00:51:46.559Z,9.35
2019-03-16T00:54:13.653Z,9.28
2019-03-16T00:56:40.731Z,9.22
2019-03-16T00:59:07.786Z,9.22
2019-03-16T01:01:34.820Z,9.21
2019-03-16T01:04:01.897Z,9.24
2019-03-16T01:06:28.990Z,9.20
2019-03-16T01:08:56.020Z,9.17
2019-03-16T01:11:23.081Z,9.22
2019-03-16T01:13:50.130Z,9.16
2019-03-16T01:16:17.256Z,9.12
2019-03-16T01:18:44.304Z,9.07
2019-03-16T01:21:11.365Z,9.02
2019-03-16T01:23:38.437Z,8.99
2019-03-16T01:26:05.485Z,8.97
2019-03-16T01:28:32.522Z,8.91
2019-03-16T01:30:59.606Z,8.89
2019-03-16T01:33:26.656Z,8.91
2019-03-16T01:35:53.684Z,8.87
2019-03-16T01:38:20.756Z,8.85
2019-03-16T01:40:47.790Z,8.85
2019-03-16T01:43:15.033Z,8.80
2019-03-16T01:45:42.168Z,8.74
2019-03-16T01:48:09.231Z,8.68
2019-03-16T01:50:36.273Z,8.66
2019-03-16T01:53:03.345Z,8.66
2019-03-16T01:55:30.528Z,8.65
2019-03-16T01:57:57.578Z,8.63
2019-03-16T02:00:24.646Z,8.59
2019-03-16T02:02:55.429Z,8.63
2019-03-16T02:05:20.744Z,8.66
2019-03-16T02:07:48.317Z,8.65
2019-03-16T02:10:15.375Z,8.65
2019-03-16T02:12:42.420Z,8.63
2019-03-16T02:15:09.626Z,8.63
2019-03-16T02:17:36.694Z,8.65
2019-03-16T02:20:04.348Z,8.61
2019-03-16T02:22:31.417Z,8.58
2019-03-16T02:24:58.561Z,8.56
2019-03-16T02:27:25.598Z,8.53
2019-03-16T02:29:52.671Z,8.52
2019-03-16T02:32:19.723Z,8.51
2019-03-16T02:34:46.768Z,8.48
2019-03-16T02:37:13.858Z,8.47
2019-03-16T02:39:40.899Z,8.45
2019-03-16T02:42:07.942Z,8.42
2019-03-16T02:44:35.014Z,8.41
2019-03-16T02:47:02.063Z,8.38
2019-03-16T02:49:29.157Z,8.36
2019-03-16T02:51:56.228Z,8.30
2019-03-16T02:54:23.266Z,8.27
2019-03-16T02:56:50.347Z,8.26
2019-03-16T02:59:17.417Z,8.20
2019-03-16T03:01:44.457Z,8.20
2019-03-16T03:04:11.495Z,8.18
2019-03-16T03:06:38.573Z,8.19
2019-03-16T03:09:07.487Z,8.18
2019-03-16T03:11:34.550Z,8.19
2019-03-16T03:14:01.632Z,8.17
2019-03-16T03:16:28.659Z,8.16
2019-03-16T03:18:55.695Z,8.17
2019-03-16T03:21:22.776Z,8.16
2019-03-16T03:23:49.853Z,8.17
2019-03-16T03:26:16.883Z,8.16
2019-03-16T03:28:43.954Z,8.18
2019-03-16T03:31:11.009Z,8.18
2019-03-16T03:33:59.232Z,8.16
2019-03-16T03:36:07.243Z,8.16
2019-03-16T03:38:34.296Z,8.16
2019-03-16T03:41:02.088Z,8.19
2019-03-16T03:43:29.456Z,8.16
2019-03-16T03:45:56.548Z,8.16
2019-03-16T03:48:23.584Z,8.17
2019-03-16T03:50:50.669Z,8.17
2019-03-16T03:53:17.736Z,8.18
2019-03-16T03:55:45.060Z,8.18
2019-03-16T03:58:12.161Z,8.18
2019-03-16T04:00:39.199Z,8.17
2019-03-16T04:03:06.529Z,8.17
2019-03-16T04:05:33.594Z,8.16
2019-03-16T04:08:00.631Z,8.16
2019-03-16T04:10:27.947Z,8.17
2019-03-16T04:12:55.036Z,8.11
2019-03-16T04:15:22.073Z,8.10
2019-03-16T04:17:49.116Z,8.10
2019-03-16T04:20:16.171Z,8.07
2019-03-16T04:22:43.229Z,8.03
2019-03-16T04:25:10.262Z,8.02
2019-03-16T04:27:37.355Z,7.99
2019-03-16T04:30:04.810Z,7.99
2019-03-16T04:32:31.859Z,7.96
2019-03-16T04:34:59.842Z,7.93
2019-03-16T04:37:26.903Z,7.96
2019-03-16T04:39:53.946Z,7.91
2019-03-16T04:42:21.009Z,7.91
2019-03-16T04:44:48.156Z,7.90
2019-03-16T04:47:15.287Z,7.86
2019-03-16T04:49:45.373Z,7.86
2019-03-16T04:52:12.479Z,7.85
2019-03-16T04:54:39.528Z,7.83
2019-03-16T04:57:06.586Z,7.82
2019-03-16T04:59:33.753Z,7.82
2019-03-16T05:02:00.801Z,7.80
2019-03-16T05:04:27.847Z,7.78
2019-03-16T05:06:55.141Z,7.77
2019-03-16T05:09:22.185Z,7.76
2019-03-16T05:11:49.225Z,7.76
2019-03-16T05:14:16.308Z,7.73
2019-03-16T05:16:43.337Z,7.70
2019-03-16T05:19:10.374Z,7.69
2019-03-16T05:21:37.462Z,7.69
2019-03-16T05:24:04.504Z,7.68
2019-03-16T05:26:31.540Z,7.65
2019-03-16T05:28:58.621Z,7.63
2019-03-16T05:31:25.665Z,7.60
2019-03-16T05:33:52.704Z,7.58
2019-03-16T05:36:19.767Z,7.56
2019-03-16T05:38:46.851Z,7.55
2019-03-16T05:41:13.887Z,7.53
2019-03-16T05:43:40.923Z,7.52
2019-03-16T05:46:08.029Z,7.50
2019-03-16T05:48:35.061Z,7.51
2019-03-16T05:51:02.109Z,7.49
2019-03-16T05:53:29.218Z,7.47
2019-03-16T05:55:56.277Z,7.47
2019-03-16T05:58:23.332Z,7.46
2019-03-16T06:00:50.420Z,7.45
2019-03-16T06:03:17.498Z,7.45
2019-03-16T06:05:44.532Z,7.44
2019-03-16T06:08:11.570Z,7.43
2019-03-16T06:10:39.054Z,7.43
2019-03-16T06:13:06.118Z,7.41
2019-03-16T06:15:33.162Z,7.39
2019-03-16T06:18:00.278Z,7.41
2019-03-16T06:20:27.318Z,7.39
2019-03-16T06:22:54.364Z,7.41
2019-03-16T06:25:21.440Z,7.42
2019-03-16T06:27:48.504Z,7.41
2019-03-16T06:30:15.543Z,7.41
2019-03-16T06:32:42.628Z,7.41
2019-03-16T06:35:23.349Z,7.42
2019-03-16T06:37:38.623Z,7.43
2019-03-16T06:40:06.024Z,7.44
2019-03-16T06:42:33.099Z,7.49
2019-03-16T06:45:00.364Z,7.55
2019-03-16T06:47:27.574Z,7.64
2019-03-16T06:49:54.683Z,7.74
2019-03-16T06:52:21.830Z,7.87
2019-03-16T06:54:48.888Z,8.00
2019-03-16T06:57:16.035Z,8.12
2019-03-16T06:59:43.133Z,8.28
2019-03-16T07:02:10.187Z,8.47
2019-03-16T07:04:37.261Z,8.63
2019-03-16T07:07:05.227Z,8.76
2019-03-16T07:09:32.277Z,8.93
2019-03-16T07:11:59.337Z,9.10
2019-03-16T07:14:26.419Z,9.21
2019-03-16T07:17:02.098Z,9.33
2019-03-16T07:19:22.512Z,9.50
2019-03-16T07:21:49.608Z,9.59
2019-03-16T07:24:16.700Z,9.72
2019-03-16T07:26:43.826Z,9.79
2019-03-16T07:29:10.925Z,9.86
2019-03-16T07:31:38.004Z,9.87
2019-03-16T07:34:05.046Z,9.93
2019-03-16T07:36:32.176Z,10.04
2019-03-16T07:38:59.230Z,10.09
2019-03-16T07:41:26.265Z,10.15
2019-03-16T07:43:53.385Z,10.27
2019-03-16T07:46:20.497Z,10.27
2019-03-16T07:48:47.567Z,10.24
2019-03-16T07:51:14.684Z,10.30
2019-03-16T07:53:41.761Z,10.32
2019-03-16T07:56:08.840Z,10.36
2019-03-16T07:58:35.926Z,10.38
2019-03-16T08:01:03.607Z,10.41
2019-03-16T08:03:30.770Z,10.42
2019-03-16T08:05:57.897Z,10.43
2019-03-16T08:08:24.966Z,10.40
2019-03-16T08:10:52.037Z,10.39
2019-03-16T08:13:19.164Z,10.36
2019-03-16T08:15:46.203Z,10.46
2019-03-16T08:18:13.253Z,10.45
2019-03-16T08:20:40.572Z,10.47
2019-03-16T08:23:07.616Z,10.42
2019-03-16T08:25:34.682Z,10.37
2019-03-16T08:28:01.790Z,10.32
2019-03-16T08:30:28.866Z,10.26
2019-03-16T08:32:57.443Z,10.28
2019-03-16T08:35:24.586Z,10.25
2019-03-16T08:37:51.635Z,10.23
2019-03-16T08:40:18.694Z,10.28
2019-03-16T08:42:45.776Z,10.31
2019-03-16T08:45:12.820Z,10.30
2019-03-16T08:47:39.910Z,10.35
2019-03-16T08:50:07.035Z,10.44
2019-03-16T08:52:34.073Z,10.60
2019-03-16T08:55:01.112Z,10.76
2019-03-16T08:57:28.217Z,10.78
2019-03-16T08:59:55.278Z,10.77
2019-03-16T09:02:22.769Z,10.89
2019-03-16T09:04:49.855Z,10.88
2019-03-16T09:07:16.925Z,10.92
2019-03-16T09:09:43.988Z,10.96
2019-03-16T09:12:11.199Z,11.02
2019-03-16T09:14:38.250Z,11.01
2019-03-16T09:17:05.310Z,11.09
2019-03-16T09:19:32.412Z,11.04
2019-03-16T09:21:59.461Z,11.01
2019-03-16T09:24:26.564Z,11.08
2019-03-16T09:26:53.692Z,11.06
2019-03-16T09:29:20.781Z,11.05
2019-03-16T09:31:47.967Z,11.08
2019-03-16T09:34:15.089Z,11.12
2019-03-16T09:36:42.282Z,11.08
2019-03-16T09:39:09.367Z,11.08
2019-03-16T09:41:36.520Z,11.09
2019-03-16T09:44:04.025Z,11.06
2019-03-16T09:46:31.259Z,11.05
2019-03-16T09:48:58.330Z,11.05
2019-03-16T09:51:25.409Z,11.06
2019-03-16T09:57:24.039Z,11.10
2019-03-16T09:59:51.098Z,11.03
2019-03-16T10:02:18.496Z,11.11
2019-03-16T10:04:45.596Z,11.04
2019-03-16T10:07:12.644Z,11.02
2019-03-16T10:09:39.747Z,11.02
2019-03-16T10:12:06.781Z,11.05
2019-03-16T10:14:37.038Z,11.04
2019-03-16T10:17:03.027Z,11.08
2019-03-16T10:19:30.108Z,11.21
2019-03-16T10:21:57.164Z,11.26
2019-03-16T10:24:24.240Z,11.27
2019-03-16T10:26:51.292Z,11.39
2019-03-16T10:29:18.368Z,11.59
2019-03-16T10:31:45.473Z,11.58
2019-03-16T10:34:12.594Z,11.67
2019-03-16T10:36:39.715Z,11.73
2019-03-16T10:39:06.800Z,11.75
2019-03-16T10:41:33.922Z,11.90
2019-03-16T10:44:00.975Z,11.83
2019-03-16T10:46:28.096Z,11.81
2019-03-16T10:48:55.419Z,11.82
2019-03-16T10:51:22.483Z,11.81
2019-03-16T10:53:49.523Z,11.72
2019-03-16T10:56:16.768Z,11.80
2019-03-16T10:58:55.749Z,11.81
2019-03-16T11:01:12.808Z,11.84
2019-03-16T11:03:40.078Z,11.94
2019-03-16T11:06:07.326Z,11.93
2019-03-16T11:08:34.462Z,11.96
2019-03-16T11:11:01.530Z,12.04
2019-03-16T11:13:28.594Z,11.93
2019-03-16T11:15:55.819Z,11.90
2019-03-16T11:18:22.895Z,11.87
2019-03-16T11:20:49.976Z,11.81
2019-03-16T11:23:17.047Z,11.80
2019-03-16T11:25:44.106Z,11.82
2019-03-16T11:28:11.174Z,11.76
2019-03-16T11:30:38.270Z,11.71
2019-03-16T11:33:05.324Z,11.69
2019-03-16T11:35:32.380Z,11.61
2019-03-16T11:37:59.442Z,11.68
2019-03-16T11:40:26.697Z,11.70
2019-03-16T11:42:53.781Z,11.71
2019-03-16T11:45:20.869Z,11.61
2019-03-16T11:47:47.959Z,11.61
2019-03-16T11:50:15.013Z,11.62
2019-03-16T11:52:42.123Z,11.73
2019-03-16T11:55:09.296Z,11.78
2019-03-16T11:57:36.343Z,11.85
2019-03-16T12:00:04.313Z,11.86
2019-03-16T12:02:31.548Z,11.91
2019-03-16T12:04:58.598Z,11.84
2019-03-16T12:07:25.630Z,11.80
2019-03-16T12:09:52.989Z,11.68
2019-03-16T12:12:20.105Z,11.58
2019-03-16T12:14:47.170Z,11.69
2019-03-16T12:17:14.279Z,11.78
2019-03-16T12:19:41.319Z,11.73
2019-03-16T12:22:08.407Z,11.79
2019-03-16T12:24:35.529Z,11.79
2019-03-16T12:27:02.596Z,11.67
2019-03-16T12:29:34.240Z,11.61
2019-03-16T12:31:58.625Z,11.56
2019-03-16T12:34:25.965Z,11.53
2019-03-16T12:36:53.000Z,11.51
2019-03-16T12:39:20.122Z,11.43
2019-03-16T12:41:47.187Z,11.37
2019-03-16T12:44:14.248Z,11.34
2019-03-16T12:46:41.358Z,11.45
2019-03-16T12:49:08.484Z,11.50
2019-03-16T12:51:35.565Z,11.45
2019-03-16T12:54:02.636Z,11.43
2019-03-16T12:56:29.714Z,11.39
2019-03-16T12:58:56.763Z,11.36
2019-03-16T13:01:23.962Z,11.34
2019-03-16T13:03:51.021Z,11.33
2019-03-16T13:06:19.247Z,11.34
2019-03-16T13:08:46.369Z,11.29
2019-03-16T13:11:13.458Z,11.40
2019-03-16T13:13:40.528Z,11.32
2019-03-16T13:16:07.669Z,11.39
2019-03-16T13:18:34.714Z,11.44
2019-03-16T13:21:01.792Z,11.48
2019-03-16T13:23:28.887Z,11.49
2019-03-16T13:25:55.917Z,11.60
2019-03-16T13:28:22.984Z,11.58
2019-03-16T13:30:50.135Z,11.58
2019-03-16T13:33:17.269Z,11.60
2019-03-16T13:35:44.357Z,11.62
2019-03-16T13:38:11.453Z,11.64
2019-03-16T13:40:38.493Z,11.62
2019-03-16T13:43:05.571Z,11.70
2019-03-16T13:45:32.674Z,11.72
2019-03-16T13:48:00.204Z,11.58
2019-03-16T13:50:27.250Z,11.77
2019-03-16T13:52:54.503Z,11.78
2019-03-16T13:55:21.603Z,11.85
2019-03-16T13:57:48.670Z,11.90
2019-03-16T14:00:16.120Z,11.81
2019-03-16T14:02:43.264Z,11.76
2019-03-16T14:05:10.358Z,11.80
2019-03-16T14:07:37.735Z,11.77
2019-03-16T14:10:06.603Z,11.71
2019-03-16T14:12:33.692Z,11.73
2019-03-16T14:15:00.780Z,11.71
2019-03-16T14:17:28.191Z,11.78
2019-03-16T14:19:55.242Z,11.78
2019-03-16T14:22:22.331Z,11.77
2019-03-16T14:24:49.555Z,11.69
2019-03-16T14:27:16.893Z,11.67
2019-03-16T14:29:44.284Z,11.61
2019-03-16T14:32:11.580Z,11.55
2019-03-16T14:34:38.632Z,11.55
2019-03-16T14:37:05.689Z,11.58
2019-03-16T14:39:32.830Z,11.51
2019-03-16T14:42:00.030Z,11.60
2019-03-16T14:44:27.111Z,11.64
2019-03-16T14:46:54.311Z,11.63
2019-03-16T14:49:21.461Z,11.58
2019-03-16T14:51:48.589Z,11.64
2019-03-16T14:54:15.667Z,11.62
2019-03-16T14:56:42.757Z,11.55
2019-03-16T14:59:09.822Z,11.52
2019-03-16T15:01:37.126Z,11.54
2019-03-16T15:04:04.195Z,11.52
2019-03-16T15:06:31.274Z,11.54
2019-03-16T15:08:58.595Z,11.51
2019-03-16T15:11:25.635Z,11.44
2019-03-16T15:13:52.775Z,11.44
2019-03-16T15:16:19.838Z,11.46
2019-03-16T15:18:46.937Z,11.50
2019-03-16T15:21:14.081Z,11.56
2019-03-16T15:23:41.143Z,11.59
2019-03-16T15:26:08.214Z,11.56
2019-03-16T15:28:35.348Z,11.56
2019-03-16T15:31:02.471Z,11.48
2019-03-16T15:33:29.587Z,11.56
2019-03-16T15:35:56.729Z,11.55
2019-03-16T15:38:23.847Z,11.53
2019-03-16T15:40:50.936Z,11.64
2019-03-16T15:43:18.041Z,11.61
2019-03-16T15:45:45.281Z,11.49
2019-03-16T15:48:12.421Z,11.50
2019-03-16T15:50:39.491Z,11.55
2019-03-16T15:53:06.616Z,11.44
2019-03-16T15:55:33.687Z,11.39
2019-03-16T15:58:08.004Z,11.35
2019-03-16T16:00:47.944Z,11.41
2019-03-16T16:03:15.038Z,11.40
2019-03-16T16:05:42.088Z,11.44
2019-03-16T16:08:09.166Z,11.46
2019-03-16T16:10:36.311Z,11.52
2019-03-16T16:13:03.418Z,11.55
2019-03-16T16:15:30.476Z,11.52
2019-03-16T16:17:57.566Z,11.55
2019-03-16T16:20:24.631Z,11.46
2019-03-16T16:22:51.729Z,11.47
2019-03-16T16:25:18.847Z,11.48
2019-03-16T16:27:46.013Z,11.48
2019-03-16T16:30:13.171Z,11.46
2019-03-16T16:32:55.351Z,11.43
2019-03-16T16:35:22.403Z,11.37
2019-03-16T16:37:49.450Z,11.33
2019-03-16T16:40:16.587Z,11.43
2019-03-16T16:42:43.679Z,11.44
2019-03-16T16:45:10.884Z,11.44
2019-03-16T16:47:38.436Z,11.46
2019-03-16T16:50:07.376Z,11.51
2019-03-16T16:52:34.458Z,11.40
2019-03-16T16:55:01.505Z,11.39
2019-03-16T16:57:28.600Z,11.32
2019-03-16T16:59:58.357Z,11.44
2019-03-16T17:02:24.587Z,11.46
2019-03-16T17:04:51.899Z,11.40
2019-03-16T17:07:18.973Z,11.39
2019-03-16T17:09:46.088Z,11.36
2019-03-16T17:12:13.212Z,11.42
2019-03-16T17:14:40.298Z,11.44
2019-03-16T17:17:07.335Z,11.49
2019-03-16T17:19:34.411Z,11.37
2019-03-16T17:22:01.473Z,11.32
2019-03-16T17:24:28.743Z,11.31
2019-03-16T17:26:55.826Z,11.41
2019-03-16T17:29:22.898Z,11.31
2019-03-16T17:31:50.154Z,11.28
2019-03-16T17:34:17.223Z,11.27
2019-03-16T17:36:44.276Z,11.20
2019-03-16T17:39:11.379Z,11.21
2019-03-16T17:41:38.465Z,11.18
2019-03-16T17:44:05.529Z,11.16
2019-03-16T17:46:32.612Z,11.10
2019-03-16T17:49:01.457Z,11.01
2019-03-16T17:51:28.530Z,10.99
2019-03-16T17:53:55.598Z,11.06
2019-03-16T17:56:22.683Z,11.02
2019-03-16T17:58:49.750Z,11.00
2019-03-16T18:01:16.948Z,10.99
2019-03-16T18:03:44.026Z,11.02
2019-03-16T18:06:11.141Z,10.97
2019-03-16T18:08:38.212Z,10.96
2019-03-16T18:11:05.510Z,10.91
2019-03-16T18:13:32.632Z,10.98
2019-03-16T18:15:59.705Z,10.97
2019-03-16T18:18:26.786Z,10.84
2019-03-16T18:20:54.321Z,10.81
2019-03-16T18:23:21.372Z,10.86
2019-03-16T18:25:48.440Z,10.81
2019-03-16T18:28:15.581Z,10.78
2019-03-16T18:30:42.726Z,10.79
2019-03-16T18:33:09.794Z,10.78
2019-03-16T18:35:36.924Z,10.78
2019-03-16T18:38:03.994Z,10.80
2019-03-16T18:40:31.072Z,10.79
2019-03-16T18:42:58.200Z,10.77
2019-03-16T18:45:25.290Z,10.76
2019-03-16T18:47:52.355Z,10.85
2019-03-16T18:50:19.496Z,10.82
2019-03-16T18:52:46.595Z,10.76
2019-03-16T18:55:13.667Z,10.80
2019-03-16T18:57:43.029Z,10.83
2019-03-16T19:00:11.010Z,10.89
2019-03-16T19:02:38.079Z,10.93
2019-03-16T19:05:05.760Z,10.94
2019-03-16T19:07:32.867Z,10.96
2019-03-16T19:09:59.982Z,10.90
2019-03-16T19:12:27.055Z,10.89
2019-03-16T19:14:54.254Z,10.90
2019-03-16T19:17:21.323Z,10.92
2019-03-16T19:19:48.482Z,10.90
2019-03-16T19:22:15.653Z,11.00
2019-03-16T19:24:42.752Z,11.00
2019-03-16T19:27:09.828Z,11.00
2019-03-16T19:29:36.977Z,11.04
2019-03-16T19:32:04.069Z,11.08
2019-03-16T19:34:31.167Z,11.11
2019-03-16T19:36:58.283Z,11.08
2019-03-16T19:39:25.401Z,11.06
2019-03-16T19:41:52.597Z,11.05
2019-03-16T19:44:19.763Z,11.06
2019-03-16T19:46:46.841Z,11.09
2019-03-16T19:49:14.030Z,11.06
2019-03-16T19:51:41.216Z,11.08
2019-03-16T19:54:08.472Z,11.14
2019-03-16T19:56:35.562Z,11.17
2019-03-16T19:59:02.805Z,11.17
2019-03-16T20:01:29.898Z,11.16
2019-03-16T20:03:57.020Z,11.21
2019-03-16T20:06:25.905Z,11.16
2019-03-16T20:08:53.175Z,11.18
2019-03-16T20:11:20.386Z,11.20
2019-03-16T20:13:47.495Z,11.22
2019-03-16T20:16:14.623Z,11.24
2019-03-16T20:18:41.956Z,11.16
2019-03-16T20:21:09.011Z,11.21
2019-03-16T20:23:36.134Z,11.23
2019-03-16T20:26:03.206Z,11.23
2019-03-16T20:28:30.398Z,11.24
2019-03-16T20:30:57.498Z,11.21
2019-03-16T20:33:24.587Z,11.25
2019-03-16T20:35:51.824Z,11.18
2019-03-16T20:38:18.954Z,11.23
2019-03-16T20:40:46.044Z,11.15
2019-03-16T20:43:13.126Z,11.13
2019-03-16T20:45:43.248Z,11.14
2019-03-16T20:48:10.289Z,11.17
2019-03-16T20:50:37.551Z,11.20
2019-03-16T20:53:04.887Z,11.14
2019-03-16T20:55:34.295Z,11.12
2019-03-16T20:58:00.978Z,11.15
2019-03-16T21:00:28.122Z,11.13
2019-03-16T21:02:55.220Z,11.11
2019-03-16T21:05:22.277Z,11.13
2019-03-16T21:07:49.393Z,11.04
2019-03-16T21:10:16.524Z,11.02
2019-03-16T21:12:43.595Z,11.00
2019-03-16T21:15:10.762Z,11.03
2019-03-16T21:17:37.977Z,10.95
2019-03-16T21:20:06.275Z,11.00
2019-03-16T21:22:38.582Z,11.02
2019-03-16T21:25:02.543Z,11.05
2019-03-16T21:27:29.632Z,11.03
2019-03-16T21:29:57.797Z,11.07
2019-03-16T21:32:24.871Z,11.02
2019-03-16T21:34:51.964Z,11.07
2019-03-16T21:37:19.091Z,11.09
2019-03-16T21:39:46.502Z,11.06
2019-03-16T21:42:13.608Z,11.09
2019-03-16T21:44:40.795Z,11.07
2019-03-16T21:47:08.142Z,11.09
2019-03-16T21:49:35.224Z,11.05
2019-03-16T21:52:02.979Z,11.16
2019-03-16T21:54:30.187Z,11.13
2019-03-16T21:56:57.252Z,11.23
2019-03-16T21:59:26.399Z,11.14
2019-03-16T22:01:53.398Z,11.17
2019-03-16T22:04:20.717Z,11.15
2019-03-16T22:06:47.870Z,11.14
2019-03-16T22:09:15.007Z,11.14
2019-03-16T22:11:42.149Z,11.18
2019-03-16T22:14:09.214Z,11.14
2019-03-16T22:16:36.358Z,11.17
2019-03-16T22:19:03.473Z,11.13
2019-03-16T22:21:30.594Z,11.11
2019-03-16T22:23:57.732Z,11.07
2019-03-16T22:26:24.828Z,11.05
2019-03-16T22:28:51.894Z,11.10
2019-03-16T22:31:19.013Z,11.10
2019-03-16T22:33:54.387Z,11.09
2019-03-16T22:36:15.049Z,11.11
2019-03-16T22:38:42.121Z,11.08
2019-03-16T22:41:09.343Z,11.10
2019-03-16T22:43:36.416Z,11.14
2019-03-16T22:46:03.524Z,11.18
2019-03-16T22:48:30.645Z,11.21
2019-03-16T22:50:57.843Z,11.22
2019-03-16T22:53:24.910Z,11.15
2019-03-16T22:55:52.038Z,11.19
2019-03-16T22:58:19.451Z,11.18
2019-03-16T23:00:48.653Z,11.33
2019-03-16T23:03:16.157Z,11.33
2019-03-16T23:05:43.281Z,11.35
2019-03-16T23:08:10.450Z,11.32
2019-03-16T23:10:37.547Z,11.28
2019-03-16T23:13:04.656Z,11.31
2019-03-16T23:15:31.776Z,11.23
2019-03-16T23:18:00.390Z,11.27
2019-03-16T23:20:27.466Z,11.28
2019-03-16T23:22:54.604Z,11.28
2019-03-16T23:25:21.922Z,11.33
2019-03-16T23:27:49.006Z,11.32
2019-03-16T23:30:16.086Z,11.36
2019-03-16T23:32:43.198Z,11.35
2019-03-16T23:35:10.300Z,11.35
2019-03-16T23:37:37.423Z,11.41
2019-03-16T23:40:04.709Z,11.47
2019-03-16T23:42:31.844Z,11.42
2019-03-16T23:44:59.160Z,11.39
2019-03-16T23:47:26.284Z,11.39
2019-03-16T23:49:53.386Z,11.45
2019-03-16T23:52:20.503Z,11.49
2019-03-16T23:54:47.600Z,11.41
2019-03-16T23:57:14.753Z,11.35
2019-03-16T23:59:41.979Z,11.35
